Ninde, Virginia
Current Conditions -  °F | °C
As of 1:56 AM on Sunday 23 Nov 2014 (Local Time) from KNYG Reporting Station
Few Clouds Few Clouds  
Wind Chill: 36°   Ceiling: Unl
Heat Index: 41°   Visibility: 10mi
Dew Point: 21°   Wind: 8mph
Humidity: 45%   Direction: 220°SW
Pressure: 30.26"   Gusts: NA
Location:  38.27°N, 77.06°W
Report Text: KNYG 230656Z AUTO 22007KT 10SM FEW110 05/M06 A3026 RMK AO2 SLP249 T00501061 $
Loading
Personal Weather Stations






























Interactive Weather Map New forecast layout! Learn more

10-Day Weather Forecast

Advertisements
Track Severe Weather on mobile